Time;durP1;ratioP1;P1;durP2;ratioP2;P2;SDS_P1;SDS_P2;PMS_P1;PMS_P2;Temp;Humidity;BMP_temperature;BMP_pressure;BME280_temperature;BME280_humidity;BME280_pressure;Samples;Min_cycle;Max_cycle;Signal;HPM_P1;HPM_P2
2021/03/03 00:00:39;;;;;;;37.15;18.70;;;2.70;99.90;;;;;;5013708;28;20038;-72
2021/03/03 00:03:05;;;;;;;37.03;17.55;;;2.80;99.90;;;;;;5013007;28;20025;-70
2021/03/03 00:05:30;;;;;;;34.78;16.67;;;2.70;99.90;;;;;;5013169;28;20030;-74
2021/03/03 00:07:56;;;;;;;40.55;17.85;;;2.70;99.90;;;;;;5011955;28;20691;-70
2021/03/03 00:10:22;;;;;;;37.20;18.63;;;2.70;99.90;;;;;;5013011;28;20033;-72
2021/03/03 00:12:48;;;;;;;34.05;17.13;;;2.60;99.90;;;;;;5012599;28;20033;-72
2021/03/03 00:15:14;;;;;;;31.85;16.25;;;2.60;99.90;;;;;;5011431;28;20488;-70
2021/03/03 00:17:40;;;;;;;41.15;17.88;;;2.50;99.90;;;;;;5012577;28;20029;-71
2021/03/03 00:20:06;;;;;;;38.70;17.92;;;2.50;99.90;;;;;;5011822;28;20088;-70
2021/03/03 00:22:32;;;;;;;35.45;17.83;;;2.50;99.90;;;;;;5012592;28;20527;-72
2021/03/03 00:24:57;;;;;;;37.13;18.25;;;2.50;99.90;;;;;;5012243;28;20057;-70
2021/03/03 00:27:23;;;;;;;36.80;18.00;;;2.40;99.90;;;;;;5012496;28;20061;-72
2021/03/03 00:29:49;;;;;;;33.67;17.25;;;2.30;99.90;;;;;;5011322;28;20064;-71
2021/03/03 00:32:14;;;;;;;38.38;18.92;;;2.40;99.90;;;;;;5012531;28;20076;-71
2021/03/03 00:34:40;;;;;;;37.13;18.35;;;2.30;99.90;;;;;;5011189;28;20457;-70
2021/03/03 00:37:05;;;;;;;36.75;19.33;;;2.30;99.90;;;;;;5012813;28;20100;-70
2021/03/03 00:39:31;;;;;;;39.80;19.35;;;2.30;99.90;;;;;;5012689;28;20032;-70
2021/03/03 00:41:58;;;;;;;39.25;18.80;;;2.30;99.90;;;;;;5012747;28;20550;-72
2021/03/03 00:44:23;;;;;;;43.25;20.08;;;2.20;99.90;;;;;;5011783;28;20137;-71
2021/03/03 00:46:49;;;;;;;46.55;22.33;;;2.30;99.90;;;;;;5012761;28;20026;-71
2021/03/03 00:49:15;;;;;;;50.10;21.63;;;2.30;99.90;;;;;;5012184;28;20022;-71
2021/03/03 00:51:41;;;;;;;50.03;22.33;;;2.40;99.90;;;;;;5011568;28;20065;-71
2021/03/03 00:54:06;;;;;;;40.88;20.58;;;2.40;99.90;;;;;;5011764;28;20021;-72
2021/03/03 00:56:32;;;;;;;39.88;18.92;;;2.40;99.90;;;;;;5012760;28;20117;-71
2021/03/03 00:58:58;;;;;;;37.20;19.35;;;2.40;99.90;;;;;;5011641;28;20065;-72
2021/03/03 01:01:23;;;;;;;41.25;19.13;;;2.40;99.90;;;;;;5011424;28;20100;-72
2021/03/03 01:03:49;;;;;;;45.00;19.70;;;2.30;99.90;;;;;;5011231;28;20038;-72
2021/03/03 01:06:15;;;;;;;42.92;20.25;;;2.20;99.90;;;;;;5011367;28;20076;-71
2021/03/03 01:08:41;;;;;;;44.33;20.67;;;2.20;99.90;;;;;;5011884;28;20053;-71
2021/03/03 01:11:08;;;;;;;44.08;21.15;;;2.30;99.90;;;;;;5012152;28;20374;-70
2021/03/03 01:13:37;;;;;;;41.42;20.23;;;2.30;99.90;;;;;;5011335;28;20054;-72
2021/03/03 01:16:03;;;;;;;45.72;20.20;;;2.30;99.90;;;;;;5011642;28;20041;-70
2021/03/03 01:18:30;;;;;;;41.85;20.80;;;2.30;99.90;;;;;;5011872;28;20030;-70
2021/03/03 01:20:56;;;;;;;39.72;19.55;;;2.30;99.90;;;;;;5011694;28;20030;-71
2021/03/03 01:23:22;;;;;;;42.15;20.83;;;2.30;99.90;;;;;;5011311;28;20030;-71
2021/03/03 01:25:47;;;;;;;37.78;18.27;;;2.40;99.90;;;;;;4992027;28;20215;-71
2021/03/03 01:28:13;;;;;;;42.97;19.60;;;2.30;99.90;;;;;;4992330;28;20030;-70
2021/03/03 01:30:38;;;;;;;40.38;20.13;;;2.30;99.90;;;;;;4992778;28;20022;-72
2021/03/03 01:33:05;;;;;;;35.83;19.67;;;2.30;99.90;;;;;;4993381;28;20022;-71
2021/03/03 01:35:30;;;;;;;41.40;20.48;;;2.20;99.90;;;;;;4994173;28;20123;-71
2021/03/03 01:37:56;;;;;;;34.17;19.10;;;2.20;99.90;;;;;;4993632;28;20178;-72
2021/03/03 01:40:21;;;;;;;42.08;19.67;;;2.20;99.90;;;;;;4993279;28;20030;-72
2021/03/03 01:42:47;;;;;;;36.67;18.98;;;2.10;99.90;;;;;;4993051;28;20489;-71
2021/03/03 01:45:13;;;;;;;39.25;20.48;;;2.00;99.90;;;;;;4994731;28;20106;-71
2021/03/03 01:47:39;;;;;;;42.55;19.15;;;2.00;99.90;;;;;;5013022;28;20476;-70
2021/03/03 01:50:08;;;;;;;44.08;19.73;;;2.00;99.90;;;;;;5013229;28;20072;-71
2021/03/03 01:52:34;;;;;;;35.40;18.58;;;1.90;99.90;;;;;;5011171;28;20109;-69
2021/03/03 01:54:59;;;;;;;37.08;19.25;;;1.90;99.90;;;;;;5010709;28;20054;-70
2021/03/03 01:57:26;;;;;;;38.25;18.70;;;1.80;99.90;;;;;;5011794;28;20030;-72
2021/03/03 01:59:51;;;;;;;40.65;19.27;;;1.90;99.90;;;;;;5012622;28;20117;-71
2021/03/03 02:02:17;;;;;;;36.55;18.67;;;1.90;99.90;;;;;;5011555;28;20101;-72
2021/03/03 02:04:43;;;;;;;38.75;19.70;;;1.90;99.90;;;;;;5009332;28;20520;-71
2021/03/03 02:07:21;;;;;;;43.03;20.05;;;1.90;99.90;;;;;;5011704;28;20452;-70
2021/03/03 02:10:00;;;;;;;42.72;19.55;;;1.80;99.90;;;;;;5011768;28;20022;-70
2021/03/03 02:12:52;;;;;;;43.55;19.45;;;1.80;99.90;;;;;;5014750;28;20381;-71
2021/03/03 02:15:19;;;;;;;38.25;18.92;;;1.70;99.90;;;;;;5015637;28;20072;-71
2021/03/03 02:17:46;;;;;;;33.95;19.17;;;1.70;99.90;;;;;;5016187;28;20034;-72
2021/03/03 02:20:14;;;;;;;43.65;19.27;;;1.80;99.90;;;;;;5014943;28;20117;-71
2021/03/03 02:22:52;;;;;;;37.90;19.75;;;1.80;99.90;;;;;;5014065;28;20034;-69
2021/03/03 02:25:28;;;;;;;40.28;18.48;;;1.90;99.90;;;;;;5014078;28;20083;-70
2021/03/03 02:27:56;;;;;;;45.40;20.77;;;1.90;99.90;;;;;;5014733;28;20034;-70
2021/03/03 02:30:23;;;;;;;38.95;19.17;;;1.90;99.90;;;;;;5014580;28;20022;-70
2021/03/03 02:32:49;;;;;;;40.28;20.42;;;1.90;99.90;;;;;;5013881;28;20080;-71
2021/03/03 02:35:15;;;;;;;42.35;20.55;;;1.90;99.90;;;;;;5014222;28;20026;-71
2021/03/03 02:37:42;;;;;;;34.00;17.63;;;1.90;99.90;;;;;;5014473;28;20476;-71
2021/03/03 02:40:10;;;;;;;43.03;19.42;;;1.80;99.90;;;;;;5014270;28;20037;-71
2021/03/03 02:42:37;;;;;;;36.33;18.70;;;1.70;99.90;;;;;;5014124;28;20054;-71
2021/03/03 02:45:14;;;;;;;42.30;19.58;;;1.60;99.90;;;;;;5013521;28;20484;-71
2021/03/03 02:47:41;;;;;;;40.80;19.77;;;1.60;99.90;;;;;;4994575;28;20026;-71
2021/03/03 02:50:10;;;;;;;45.78;20.70;;;1.60;99.90;;;;;;4994680;28;20507;-70
2021/03/03 02:52:53;;;;;;;35.75;18.83;;;1.60;99.90;;;;;;4993064;28;20040;-70
2021/03/03 02:55:20;;;;;;;45.60;20.00;;;1.60;99.90;;;;;;4994222;28;20030;-72
2021/03/03 02:57:46;;;;;;;43.75;19.20;;;1.60;99.90;;;;;;4994650;28;20053;-70
2021/03/03 03:00:24;;;;;;;33.03;18.02;;;1.60;99.90;;;;;;4994489;28;20022;-70
2021/03/03 03:02:57;;;;;;;40.92;18.85;;;1.60;99.90;;;;;;4993849;28;20084;-70
2021/03/03 03:05:27;;;;;;;34.78;19.58;;;1.70;99.90;;;;;;4994211;28;20022;-71
2021/03/03 03:07:55;;;;;;;35.90;18.98;;;1.60;99.90;;;;;;4994452;28;20022;-70
2021/03/03 03:10:23;;;;;;;41.42;19.60;;;1.60;99.90;;;;;;4994302;28;20054;-71
2021/03/03 03:12:52;;;;;;;38.38;20.25;;;1.50;99.90;;;;;;4993719;28;20034;-71
2021/03/03 03:15:24;;;;;;;39.05;18.98;;;1.40;99.90;;;;;;4996389;28;20041;-71
2021/03/03 03:17:55;;;;;;;38.08;19.35;;;1.40;99.90;;;;;;5013709;28;20105;-70
2021/03/03 03:20:22;;;;;;;37.72;18.13;;;1.50;99.90;;;;;;5013772;28;20033;-71
2021/03/03 03:22:48;;;;;;;42.17;18.80;;;1.50;99.90;;;;;;5012355;28;20229;-71
2021/03/03 03:25:14;;;;;;;48.40;20.95;;;1.50;99.90;;;;;;5012950;28;20034;-71
2021/03/03 03:27:42;;;;;;;37.95;19.95;;;1.60;99.90;;;;;;5013600;28;20077;-71
2021/03/03 03:30:13;;;;;;;36.75;19.40;;;1.50;99.90;;;;;;5013406;28;20469;-71
2021/03/03 03:32:40;;;;;;;41.63;20.48;;;1.50;99.90;;;;;;5013018;28;20072;-69
2021/03/03 03:35:07;;;;;;;41.72;21.17;;;1.50;99.90;;;;;;5013212;28;20481;-72
2021/03/03 03:37:33;;;;;;;42.65;21.17;;;1.50;99.90;;;;;;5012307;28;20030;-73
2021/03/03 03:40:00;;;;;;;38.65;20.00;;;1.50;99.90;;;;;;5013911;28;20048;-70
2021/03/03 03:42:28;;;;;;;38.20;18.63;;;1.40;99.90;;;;;;5013394;28;20052;-70
2021/03/03 03:44:56;;;;;;;39.33;19.55;;;1.40;99.90;;;;;;5012434;28;20028;-72
2021/03/03 03:47:22;;;;;;;33.47;18.58;;;1.40;99.90;;;;;;5012433;28;20424;-72
2021/03/03 03:49:50;;;;;;;40.75;19.83;;;1.30;99.90;;;;;;5013582;28;20036;-71
2021/03/03 03:52:20;;;;;;;43.60;20.13;;;1.30;99.90;;;;;;5014047;28;20030;-71
2021/03/03 03:54:53;;;;;;;39.20;20.05;;;1.30;99.90;;;;;;5012947;28;20425;-70
2021/03/03 03:57:20;;;;;;;36.13;18.00;;;1.30;99.90;;;;;;5013781;28;20477;-71
2021/03/03 03:59:46;;;;;;;36.03;18.80;;;1.20;99.90;;;;;;5013657;28;20108;-72
2021/03/03 04:02:12;;;;;;;36.58;20.02;;;1.20;99.90;;;;;;5012565;28;20030;-71
2021/03/03 04:04:39;;;;;;;41.55;19.33;;;1.20;99.90;;;;;;5013545;28;20526;-72
2021/03/03 04:07:05;;;;;;;36.65;18.52;;;1.20;99.90;;;;;;5013810;28;20033;-72
2021/03/03 04:09:30;;;;;;;36.33;19.00;;;1.30;99.90;;;;;;5013785;28;20030;-73
2021/03/03 04:11:57;;;;;;;37.83;18.08;;;1.30;99.90;;;;;;5014539;28;20140;-72
2021/03/03 04:14:23;;;;;;;40.40;19.75;;;1.30;99.90;;;;;;5020360;28;20109;-72
2021/03/03 04:16:48;;;;;;;35.97;18.23;;;1.20;99.90;;;;;;5020267;28;20072;-72
2021/03/03 04:19:14;;;;;;;38.47;19.15;;;1.30;99.90;;;;;;5020666;28;20036;-70
2021/03/03 04:21:40;;;;;;;33.17;18.15;;;1.30;99.90;;;;;;5015982;28;20037;-71
2021/03/03 04:24:06;;;;;;;40.28;18.50;;;1.30;99.90;;;;;;5012921;28;20030;-72
2021/03/03 04:26:32;;;;;;;31.85;17.60;;;1.30;99.90;;;;;;5013246;28;20022;-71
2021/03/03 04:28:58;;;;;;;35.55;17.88;;;1.30;99.90;;;;;;5013924;28;20041;-70
2021/03/03 04:31:23;;;;;;;35.72;18.92;;;1.40;99.90;;;;;;5013635;28;20072;-74
2021/03/03 04:33:49;;;;;;;33.70;18.25;;;1.40;99.90;;;;;;5013313;28;20053;-73
2021/03/03 04:36:14;;;;;;;40.60;19.80;;;1.30;99.90;;;;;;5013626;28;20388;-71
2021/03/03 04:38:40;;;;;;;39.33;19.70;;;1.40;99.90;;;;;;5014011;28;20033;-72
2021/03/03 04:41:06;;;;;;;42.78;20.60;;;1.30;99.90;;;;;;5013377;28;20069;-72
2021/03/03 04:43:31;;;;;;;41.90;19.63;;;1.30;99.90;;;;;;5013054;28;20026;-73
2021/03/03 04:45:57;;;;;;;41.22;18.88;;;1.30;99.90;;;;;;5013448;28;20030;-72
2021/03/03 04:48:23;;;;;;;39.88;19.75;;;1.20;99.90;;;;;;5013644;28;20021;-73
2021/03/03 04:50:48;;;;;;;41.80;19.13;;;1.20;99.90;;;;;;5012623;28;20503;-72
2021/03/03 04:53:14;;;;;;;40.15;18.83;;;1.20;99.90;;;;;;5012466;28;20471;-72
2021/03/03 04:55:39;;;;;;;40.97;19.95;;;1.20;99.90;;;;;;5012817;28;20468;-73
2021/03/03 04:58:05;;;;;;;39.25;19.35;;;1.20;99.90;;;;;;5013349;28;20033;-73
2021/03/03 05:00:31;;;;;;;38.08;19.90;;;1.20;99.90;;;;;;5013762;28;20029;-71
2021/03/03 05:02:57;;;;;;;39.10;20.23;;;1.20;99.90;;;;;;5012342;28;20373;-70
2021/03/03 05:05:22;;;;;;;40.60;20.88;;;1.20;99.90;;;;;;5012069;28;20164;-72
2021/03/03 05:07:48;;;;;;;34.70;18.73;;;1.20;99.90;;;;;;5013377;28;20034;-72
2021/03/03 05:10:14;;;;;;;39.22;19.65;;;1.20;99.90;;;;;;5012810;28;20097;-73
2021/03/03 05:12:40;;;;;;;44.13;19.48;;;1.30;99.90;;;;;;5012593;28;20026;-71
2021/03/03 05:15:06;;;;;;;39.15;19.75;;;1.20;99.90;;;;;;5012893;28;20048;-72
2021/03/03 05:17:31;;;;;;;37.47;18.77;;;1.20;99.90;;;;;;5013253;28;20033;-70
2021/03/03 05:19:57;;;;;;;42.80;20.13;;;1.20;99.90;;;;;;5012209;28;20515;-73
2021/03/03 05:22:23;;;;;;;37.72;20.35;;;1.20;99.90;;;;;;5013637;28;20612;-71
2021/03/03 05:24:48;;;;;;;41.60;22.67;;;1.10;99.90;;;;;;5012372;28;20042;-72
2021/03/03 05:27:14;;;;;;;39.13;19.70;;;1.10;99.90;;;;;;5011809;28;20025;-71
2021/03/03 05:29:39;;;;;;;44.08;19.38;;;1.10;99.90;;;;;;4998332;28;20126;-71
2021/03/03 05:32:05;;;;;;;40.60;18.55;;;1.10;99.90;;;;;;4995411;28;20030;-72
2021/03/03 05:34:31;;;;;;;40.72;19.75;;;1.10;99.90;;;;;;4993924;28;20022;-73
2021/03/03 05:36:58;;;;;;;37.88;18.73;;;1.10;99.90;;;;;;4996145;28;20045;-71
2021/03/03 05:39:24;;;;;;;40.13;19.30;;;1.10;99.90;;;;;;4996471;28;20030;-71
2021/03/03 05:41:49;;;;;;;36.25;20.88;;;1.10;99.90;;;;;;5006535;28;20030;-72
2021/03/03 05:44:16;;;;;;;38.47;18.73;;;1.10;99.90;;;;;;5002113;28;20045;-71
2021/03/03 05:46:45;;;;;;;38.35;19.83;;;1.10;99.90;;;;;;4997419;28;20035;-69
2021/03/03 05:49:16;;;;;;;38.53;19.05;;;1.20;99.90;;;;;;4999757;28;20022;-70
2021/03/03 05:51:43;;;;;;;37.20;19.83;;;1.20;99.90;;;;;;4996050;28;20023;-69
2021/03/03 05:54:09;;;;;;;38.55;20.52;;;1.20;99.90;;;;;;4993937;28;20113;-69
2021/03/03 05:56:35;;;;;;;36.33;19.70;;;1.20;99.90;;;;;;4995859;28;20491;-68
2021/03/03 05:59:01;;;;;;;40.25;19.70;;;1.20;99.90;;;;;;4994346;28;20034;-70
2021/03/03 06:01:27;;;;;;;40.17;20.02;;;1.20;99.90;;;;;;4995311;28;20030;-68
2021/03/03 06:03:53;;;;;;;36.33;19.15;;;1.20;99.90;;;;;;5009657;28;20099;-69
2021/03/03 06:06:20;;;;;;;38.97;18.77;;;1.20;99.90;;;;;;5014851;28;20476;-70
2021/03/03 06:08:48;;;;;;;38.03;19.20;;;1.20;99.90;;;;;;5015066;28;20034;-72
2021/03/03 06:11:14;;;;;;;43.83;19.48;;;1.20;99.90;;;;;;5014907;28;20024;-71
2021/03/03 06:13:40;;;;;;;37.83;20.88;;;1.20;99.90;;;;;;5013991;28;20076;-70
2021/03/03 06:16:06;;;;;;;43.92;19.55;;;1.30;99.90;;;;;;5014281;28;20037;-71
2021/03/03 06:18:31;;;;;;;41.03;19.25;;;1.80;99.90;;;;;;5013479;28;20481;-71
2021/03/03 06:20:57;;;;;;;37.88;18.50;;;2.00;99.90;;;;;;5013993;28;20025;-72
2021/03/03 06:23:30;;;;;;;35.88;18.33;;;1.90;99.90;;;;;;5014110;28;20029;-70
2021/03/03 06:25:56;;;;;;;33.65;17.73;;;1.70;99.90;;;;;;4997399;28;20049;-72
2021/03/03 06:28:51;;;;;;;32.22;16.95;;;1.70;99.90;;;;;;4995713;28;20476;-71
2021/03/03 06:31:34;;;;;;;34.75;17.77;;;1.60;99.90;;;;;;4959401;28;20039;-72
2021/03/03 06:34:19;;;;;;;36.50;18.55;;;1.50;99.90;;;;;;4976727;28;20031;-73
2021/03/03 06:36:58;;;;;;;35.45;18.23;;;1.50;99.90;;;;;;4995932;28;20038;-73
2021/03/03 06:39:37;;;;;;;34.72;18.67;;;1.50;99.90;;;;;;4995652;28;20057;-71
2021/03/03 06:42:08;;;;;;;36.17;18.77;;;1.60;99.90;;;;;;4994770;28;20027;-71
2021/03/03 06:44:57;;;;;;;39.05;18.10;;;1.60;99.90;;;;;;5002387;28;20060;-72
2021/03/03 06:47:23;;;;;;;34.90;18.33;;;1.70;99.90;;;;;;5014470;28;20022;-72
2021/03/03 06:49:51;;;;;;;38.20;19.05;;;1.70;99.90;;;;;;5015257;28;20022;-72
2021/03/03 06:52:17;;;;;;;31.80;17.42;;;1.80;99.90;;;;;;5013704;28;20084;-73
2021/03/03 06:54:43;;;;;;;31.85;18.15;;;1.90;99.90;;;;;;5013550;28;20022;-71
2021/03/03 06:57:13;;;;;;;32.45;17.52;;;1.90;99.90;;;;;;5014330;28;20456;-70
2021/03/03 06:59:43;;;;;;;36.20;18.77;;;1.90;99.90;;;;;;5014359;28;20141;-72
2021/03/03 07:02:10;;;;;;;35.83;19.23;;;2.10;99.90;;;;;;5000242;28;20185;-73
2021/03/03 07:04:41;;;;;;;36.38;18.38;;;2.20;99.90;;;;;;4994690;28;20158;-72
2021/03/03 07:07:13;;;;;;;34.83;17.85;;;2.30;99.90;;;;;;4994592;28;20030;-71
2021/03/03 07:09:44;;;;;;;33.95;18.20;;;2.30;99.90;;;;;;4994984;28;20026;-71
2021/03/03 07:12:15;;;;;;;42.45;20.85;;;2.30;99.90;;;;;;4986023;28;20041;-70
2021/03/03 07:14:42;;;;;;;34.13;19.10;;;2.30;99.90;;;;;;4993653;28;20054;-72
2021/03/03 07:17:09;;;;;;;38.30;17.67;;;2.30;99.90;;;;;;4991902;28;20034;-71
2021/03/03 07:19:46;;;;;;;32.53;18.02;;;2.40;99.90;;;;;;4992806;28;20489;-71
2021/03/03 07:22:30;;;;;;;35.83;17.95;;;2.50;99.90;;;;;;4993295;28;20038;-71
2021/03/03 07:25:13;;;;;;;39.00;19.30;;;2.70;99.90;;;;;;4993380;28;20377;-72
2021/03/03 07:27:40;;;;;;;30.73;17.17;;;2.70;99.90;;;;;;4993223;28;20050;-73
2021/03/03 07:30:08;;;;;;;30.67;18.48;;;2.90;99.90;;;;;;4993774;28;20397;-72
2021/03/03 07:32:34;;;;;;;32.72;18.00;;;3.00;99.90;;;;;;4994274;28;20534;-72
2021/03/03 07:35:00;;;;;;;31.55;18.63;;;3.10;99.90;;;;;;4993592;28;20022;-73
2021/03/03 07:37:32;;;;;;;37.25;18.27;;;3.30;99.90;;;;;;4992691;28;20019;-73
2021/03/03 07:40:02;;;;;;;;;;;3.30;99.90;;;;;;4995644;28;20086;-72
2021/03/03 07:42:29;;;;;;;38.17;20.00;;;3.40;99.90;;;;;;4997684;28;19906;-73
2021/03/03 07:44:57;;;;;;;35.28;19.33;;;3.50;99.90;;;;;;4996909;28;20055;-72
2021/03/03 07:47:25;;;;;;;38.40;19.38;;;3.40;99.90;;;;;;5012317;28;20022;-71
2021/03/03 07:49:52;;;;;;;33.55;19.52;;;3.30;99.90;;;;;;5017378;28;20060;-71
2021/03/03 07:52:19;;;;;;;36.80;18.05;;;3.40;99.90;;;;;;5012566;28;20730;-73
2021/03/03 07:54:44;;;;;;;40.17;19.17;;;3.50;99.90;;;;;;5012091;28;20034;-73
2021/03/03 07:57:13;;;;;;;30.63;17.98;;;3.70;99.90;;;;;;5001105;28;20027;-70
2021/03/03 07:59:42;;;;;;;27.83;16.52;;;3.80;99.90;;;;;;4993515;28;20436;-70
2021/03/03 08:02:09;;;;;;;30.23;17.65;;;3.80;99.90;;;;;;4994673;28;20088;-71
2021/03/03 08:04:36;;;;;;;32.95;18.60;;;3.90;99.90;;;;;;4993307;28;20100;-70
2021/03/03 08:07:24;;;;;;;32.67;17.20;;;4.00;99.90;;;;;;4996918;28;20113;-72
2021/03/03 08:10:11;;;;;;;34.67;17.20;;;4.10;99.90;;;;;;4997242;28;20097;-71
2021/03/03 08:13:18;;;;;;;33.95;17.90;;;4.20;99.90;;;;;;4996615;28;20026;-71
2021/03/03 08:15:45;;;;;;;39.85;16.35;;;4.30;99.90;;;;;;4991088;28;20194;-71
2021/03/03 08:18:13;;;;;;;34.35;17.52;;;4.40;99.90;;;;;;5013310;28;20030;-71
2021/03/03 08:20:43;;;;;;;31.80;17.30;;;4.50;99.90;;;;;;5013642;28;20030;-71
2021/03/03 08:23:09;;;;;;;33.30;16.77;;;4.60;99.90;;;;;;5013982;28;20037;-73
2021/03/03 08:25:49;;;;;;;38.80;18.58;;;4.70;99.90;;;;;;5013959;28;20034;-70
2021/03/03 08:28:26;;;;;;;31.45;17.88;;;4.80;99.90;;;;;;5013174;28;20108;-71
2021/03/03 08:31:06;;;;;;;33.13;17.88;;;4.80;99.90;;;;;;5013112;28;20022;-72
2021/03/03 08:33:37;;;;;;;33.78;17.60;;;4.90;99.90;;;;;;5011043;28;20072;-72
2021/03/03 08:36:05;;;;;;;28.38;16.92;;;4.90;99.90;;;;;;5012660;28;20488;-72
2021/03/03 08:38:31;;;;;;;34.67;17.00;;;5.10;99.90;;;;;;5011765;28;20060;-72
2021/03/03 08:41:14;;;;;;;34.35;18.55;;;5.20;99.90;;;;;;5012998;28;20437;-72
2021/03/03 08:43:48;;;;;;;31.30;17.42;;;5.30;99.90;;;;;;5012445;28;20037;-72
2021/03/03 08:46:20;;;;;;;33.10;18.27;;;5.30;99.90;;;;;;5013016;28;20411;-71
2021/03/03 08:48:52;;;;;;;34.97;18.13;;;4.80;99.90;;;;;;5013397;28;20025;-70
2021/03/03 08:51:30;;;;;;;;;;;4.70;99.90;;;;;;5014276;28;20026;-70
2021/03/03 08:54:05;;;;;;;34.17;17.90;;;5.00;99.90;;;;;;5033502;28;19964;-70
2021/03/03 08:56:38;;;;;;;31.38;18.65;;;5.30;99.90;;;;;;5013463;28;20019;-74
2021/03/03 08:59:34;;;;;;;29.23;17.02;;;5.30;99.90;;;;;;4992890;28;20026;-72
2021/03/03 09:02:21;;;;;;;33.67;17.30;;;5.40;99.90;;;;;;4993615;28;20164;-72
2021/03/03 09:04:54;;;;;;;33.80;17.95;;;5.60;99.90;;;;;;4992319;28;20026;-71
2021/03/03 09:07:24;;;;;;;32.55;17.05;;;5.90;99.90;;;;;;4992171;28;20018;-71
2021/03/03 09:09:56;;;;;;;34.78;17.88;;;5.80;99.90;;;;;;4992872;28;20548;-72
2021/03/03 09:12:30;;;;;;;30.33;17.73;;;6.10;99.90;;;;;;4993146;28;20022;-71
2021/03/03 09:14:58;;;;;;;37.20;18.48;;;6.10;99.90;;;;;;4991491;28;20043;-72
2021/03/03 09:17:31;;;;;;;31.98;17.52;;;6.40;99.90;;;;;;5008013;28;20101;-71
2021/03/03 09:19:59;;;;;;;38.95;18.30;;;6.60;99.90;;;;;;5011831;28;20025;-70
2021/03/03 09:22:28;;;;;;;32.13;19.67;;;6.70;99.90;;;;;;5009912;28;20053;-70
2021/03/03 09:25:06;;;;;;;40.17;20.65;;;6.70;99.90;;;;;;5011331;28;20025;-71
2021/03/03 09:27:32;;;;;;;40.63;18.98;;;6.70;99.90;;;;;;5010405;28;20088;-70
2021/03/03 09:29:57;;;;;;;37.03;20.38;;;6.60;99.90;;;;;;5011383;28;20489;-70
2021/03/03 09:32:23;;;;;;;35.35;19.88;;;6.70;99.90;;;;;;5012904;28;20018;-70
2021/03/03 09:34:53;;;;;;;33.00;18.58;;;6.90;99.90;;;;;;5011138;28;20487;-71
2021/03/03 09:37:21;;;;;;;35.00;19.05;;;7.00;99.90;;;;;;5011011;28;20030;-71
2021/03/03 09:39:52;;;;;;;33.13;18.98;;;7.00;99.90;;;;;;5011797;28;20381;-72
2021/03/03 09:42:18;;;;;;;35.45;20.58;;;7.20;99.90;;;;;;5010605;28;20030;-72
2021/03/03 09:44:46;;;;;;;30.33;20.15;;;7.20;99.90;;;;;;5011045;28;20018;-73
2021/03/03 09:47:19;;;;;;;37.97;22.90;;;7.30;99.90;;;;;;5010948;28;20053;-71
2021/03/03 09:49:45;;;;;;;32.90;18.92;;;7.60;99.90;;;;;;5011426;28;20022;-71
2021/03/03 09:52:10;;;;;;;29.40;19.35;;;7.80;99.90;;;;;;5011505;28;20097;-70
2021/03/03 09:54:38;;;;;;;40.58;18.60;;;8.00;99.90;;;;;;5010974;28;20033;-71
2021/03/03 09:57:11;;;;;;;33.03;19.23;;;8.20;99.90;;;;;;5000105;28;20460;-72
2021/03/03 09:59:40;;;;;;;36.92;18.75;;;8.40;99.90;;;;;;4991945;28;20053;-71
2021/03/03 10:02:07;;;;;;;32.42;18.90;;;8.60;99.90;;;;;;4991817;28;20069;-72
2021/03/03 10:04:36;;;;;;;33.15;17.27;;;8.50;99.90;;;;;;4990865;28;20030;-71
2021/03/03 10:07:07;;;;;;;36.58;17.38;;;8.70;99.90;;;;;;4990933;28;20027;-71
2021/03/03 10:09:37;;;;;;;27.05;17.38;;;8.70;99.90;;;;;;4991418;28;20022;-72
2021/03/03 10:12:06;;;;;;;33.03;21.90;;;8.90;99.90;;;;;;4997897;28;20032;-71
2021/03/03 10:14:32;;;;;;;29.40;16.90;;;9.10;99.90;;;;;;5010687;28;20121;-72
2021/03/03 10:16:59;;;;;;;28.67;17.15;;;9.40;99.90;;;;;;5011419;28;20285;-70
2021/03/03 10:19:25;;;;;;;28.60;17.60;;;9.90;99.90;;;;;;5009298;28;20022;-69
2021/03/03 10:21:51;;;;;;;27.30;16.88;;;10.30;99.90;;;;;;4977221;28;20030;-72
2021/03/03 10:24:19;;;;;;;25.48;16.17;;;10.20;99.90;;;;;;4975168;28;20038;-69
2021/03/03 10:26:46;;;;;;;27.63;17.33;;;10.40;99.90;;;;;;4973042;28;20023;-71
2021/03/03 10:29:29;;;;;;;34.78;20.90;;;10.00;99.90;;;;;;4982667;28;20018;-70
2021/03/03 10:32:07;;;;;;;47.85;25.80;;;10.30;99.90;;;;;;5003459;28;20029;-73
2021/03/03 10:34:33;;;;;;;51.33;26.15;;;10.60;99.90;;;;;;4995078;28;20042;-71
2021/03/03 10:36:58;;;;;;;33.70;15.85;;;10.70;99.90;;;;;;4996237;28;20410;-70
2021/03/03 10:39:28;;;;;;;24.48;17.13;;;10.90;99.90;;;;;;5002566;28;20120;-69
2021/03/03 10:42:03;;;;;;;25.25;15.73;;;11.40;99.90;;;;;;5015073;28;20026;-69
2021/03/03 10:44:42;;;;;;;22.92;15.75;;;11.80;99.90;;;;;;5014252;28;20037;-73
2021/03/03 10:47:08;;;;;;;30.88;14.63;;;12.00;99.70;;;;;;5014600;28;20026;-73
2021/03/03 10:49:38;;;;;;;31.73;15.60;;;12.10;99.20;;;;;;5014392;28;20022;-72
2021/03/03 10:52:17;;;;;;;27.48;15.90;;;12.20;98.20;;;;;;5013821;28;20028;-73
2021/03/03 10:54:43;;;;;;;25.65;15.95;;;12.00;98.60;;;;;;5013798;28;20022;-73
2021/03/03 10:57:08;;;;;;;24.02;15.63;;;12.10;99.00;;;;;;5001816;28;20089;-72
2021/03/03 10:59:36;;;;;;;24.60;14.98;;;12.10;97.40;;;;;;4994283;28;20023;-73
2021/03/03 11:02:03;;;;;;;27.75;16.15;;;12.30;98.20;;;;;;4998488;28;20116;-71
2021/03/03 11:04:44;;;;;;;25.52;15.25;;;12.50;98.10;;;;;;5013906;28;20018;-73
2021/03/03 11:07:15;;;;;;;23.27;15.15;;;12.70;96.30;;;;;;5014422;28;20080;-71
2021/03/03 11:09:42;;;;;;;26.35;16.23;;;12.50;96.90;;;;;;5013414;28;20025;-73
2021/03/03 11:12:08;;;;;;;30.15;15.60;;;12.90;95.80;;;;;;5014860;28;20026;-73
2021/03/03 11:14:35;;;;;;;25.58;15.73;;;13.00;95.50;;;;;;5013821;28;20029;-72
2021/03/03 11:17:02;;;;;;;26.17;15.30;;;13.30;94.60;;;;;;5014369;28;20425;-73
2021/03/03 11:19:29;;;;;;;32.13;15.68;;;13.20;94.00;;;;;;5012691;28;20476;-72
2021/03/03 11:21:55;;;;;;;28.75;16.27;;;13.10;93.30;;;;;;5014242;28;20507;-74
2021/03/03 11:24:22;;;;;;;27.75;16.92;;;13.40;93.20;;;;;;5013519;28;20064;-73
2021/03/03 11:26:48;;;;;;;27.67;15.57;;;13.50;92.80;;;;;;5012871;28;20109;-73
2021/03/03 11:29:15;;;;;;;33.00;17.60;;;13.70;92.30;;;;;;5014173;28;20465;-72
2021/03/03 11:31:42;;;;;;;27.40;17.40;;;14.00;92.70;;;;;;5015661;28;20026;-73
2021/03/03 11:34:08;;;;;;;25.15;15.27;;;13.80;91.90;;;;;;5016730;28;20033;-77
2021/03/03 11:36:35;;;;;;;30.10;16.27;;;14.00;92.30;;;;;;5017218;28;20038;-76
2021/03/03 11:39:01;;;;;;;27.13;16.23;;;14.40;92.00;;;;;;5036061;28;20010;-75
2021/03/03 11:41:27;;;;;;;25.75;16.95;;;14.30;91.40;;;;;;5012796;28;20109;-76
2021/03/03 11:43:52;;;;;;;27.63;16.25;;;13.80;92.00;;;;;;4993693;28;20138;-73
2021/03/03 11:46:18;;;;;;;26.58;16.70;;;13.60;92.20;;;;;;4999013;28;20065;-73
2021/03/03 11:48:44;;;;;;;27.48;16.40;;;13.60;92.70;;;;;;5015144;28;20037;-71
2021/03/03 11:51:09;;;;;;;29.13;17.15;;;14.20;92.10;;;;;;5014475;28;20025;-73
2021/03/03 11:53:35;;;;;;;28.92;16.90;;;14.30;91.90;;;;;;5013462;28;20473;-72
2021/03/03 11:56:01;;;;;;;23.45;15.02;;;14.20;91.80;;;;;;5010405;28;20037;-73
2021/03/03 11:58:27;;;;;;;24.95;15.57;;;14.30;91.20;;;;;;4994061;28;20054;-71
2021/03/03 12:00:53;;;;;;;30.00;16.60;;;14.40;91.30;;;;;;4995343;28;20026;-73
2021/03/03 12:03:18;;;;;;;28.30;18.20;;;14.60;90.90;;;;;;4992867;28;20424;-73
2021/03/03 12:05:44;;;;;;;32.00;16.58;;;14.80;90.20;;;;;;4993062;28;20026;-73
2021/03/03 12:08:10;;;;;;;33.92;17.30;;;14.90;90.20;;;;;;5000097;28;20025;-74
2021/03/03 12:10:37;;;;;;;30.77;17.60;;;15.00;89.20;;;;;;5012405;28;20445;-73
2021/03/03 12:13:03;;;;;;;40.47;17.58;;;14.10;90.10;;;;;;5011910;28;20036;-74
2021/03/03 12:15:29;;;;;;;25.92;16.17;;;14.40;89.80;;;;;;5011985;28;20030;-74
2021/03/03 12:17:54;;;;;;;29.85;16.95;;;14.70;87.40;;;;;;5011564;28;20037;-73
2021/03/03 12:20:20;;;;;;;24.25;15.43;;;14.50;87.00;;;;;;5012098;28;20476;-74
2021/03/03 12:22:47;;;;;;;29.50;15.73;;;14.30;88.60;;;;;;5011653;28;20064;-73
2021/03/03 12:25:13;;;;;;;25.08;14.45;;;14.70;87.50;;;;;;5012227;28;20018;-72
2021/03/03 12:27:39;;;;;;;22.85;15.52;;;14.60;85.40;;;;;;5012349;28;20072;-71
2021/03/03 12:30:06;;;;;;;23.13;14.13;;;13.60;87.40;;;;;;5012250;28;20065;-72
2021/03/03 12:32:32;;;;;;;18.35;13.20;;;13.90;87.70;;;;;;5010274;28;20022;-70
2021/03/03 12:34:58;;;;;;;22.08;13.85;;;14.30;86.30;;;;;;5008708;28;20026;-71
2021/03/03 12:37:24;;;;;;;22.05;12.93;;;14.60;85.30;;;;;;4996519;28;20025;-71
2021/03/03 12:39:51;;;;;;;21.05;13.20;;;14.30;83.30;;;;;;4993007;28;20042;-71
2021/03/03 12:42:16;;;;;;;19.33;12.43;;;14.50;85.90;;;;;;4991624;28;20505;-70